Time;durP1;ratioP1;P1;durP2;ratioP2;P2;SDS_P1;SDS_P2;PMS_P1;PMS_P2;Temp;Humidity;BMP_temperature;BMP_pressure;BME280_temperature;BME280_humidity;BME280_pressure;Samples;Min_cycle;Max_cycle;Signal;HPM_P1;HPM_P2
2022/08/06 00:00:43;;;;;;;5.20;1.00;;;;;;;;;;4796128;29;20054;-78
2022/08/06 00:03:09;;;;;;;3.80;0.73;;;;;;;;;;4809333;29;20145;-79
2022/08/06 00:05:35;;;;;;;2.47;0.68;;;;;;;;;;4810274;29;20787;-78
2022/08/06 00:08:01;;;;;;;3.70;0.90;;;;;;;;;;4783898;29;20081;-79
2022/08/06 00:10:27;;;;;;;2.40;0.82;;;;;;;;;;4795701;29;20091;-78
2022/08/06 00:12:54;;;;;;;6.97;1.23;;;;;;;;;;4808822;29;20046;-78
2022/08/06 00:15:20;;;;;;;4.50;0.95;;;;;;;;;;4813613;29;20435;-78
2022/08/06 00:17:46;;;;;;;3.38;0.68;;;;;;;;;;4811250;29;20076;-78
2022/08/06 00:20:13;;;;;;;1.80;1.00;;;;;;;;;;4800316;29;20043;-78
2022/08/06 00:22:39;;;;;;;1.40;0.60;;;;;;;;;;4811256;29;20057;-78
2022/08/06 00:25:07;;;;;;;3.42;0.70;;;;;;;;;;4801731;29;20142;-77
2022/08/06 00:27:33;;;;;;;2.22;0.70;;;;;;;;;;4810022;29;20050;-78
2022/08/06 00:29:59;;;;;;;2.00;0.60;;;;;;;;;;4816424;29;20047;-78
2022/08/06 00:32:26;;;;;;;6.95;1.00;;;;;;;;;;4808613;29;20221;-77
2022/08/06 00:34:52;;;;;;;1.30;0.50;;;;;;;;;;4801390;29;20047;-76
2022/08/06 00:37:18;;;;;;;1.75;0.75;;;;;;;;;;4808798;29;20136;-78
2022/08/06 00:39:44;;;;;;;2.13;0.73;;;;;;;;;;4793644;29;20110;-78
2022/08/06 00:42:10;;;;;;;6.38;0.60;;;;;;;;;;4829628;29;20126;-78
2022/08/06 00:44:39;;;;;;;1.95;0.60;;;;;;;;;;4831912;29;20399;-78
2022/08/06 00:47:05;;;;;;;1.45;0.60;;;;;;;;;;4834619;29;20050;-79
2022/08/06 00:49:31;;;;;;;2.15;0.60;;;;;;;;;;4833452;29;20046;-78
2022/08/06 00:51:57;;;;;;;2.13;0.80;;;;;;;;;;4825584;29;20073;-77
2022/08/06 00:54:23;;;;;;;3.65;0.65;;;;;;;;;;4830532;29;20042;-77
2022/08/06 00:56:49;;;;;;;2.40;0.70;;;;;;;;;;4814661;29;20467;-78
2022/08/06 00:59:16;;;;;;;3.17;0.77;;;;;;;;;;4828879;29;20444;-78
2022/08/06 01:01:42;;;;;;;3.25;0.63;;;;;;;;;;4830004;29;20060;-79
2022/08/06 01:04:08;;;;;;;2.33;0.50;;;;;;;;;;4829391;29;20037;-77
2022/08/06 01:06:34;;;;;;;2.35;0.60;;;;;;;;;;4829883;29;20502;-78
2022/08/06 01:09:00;;;;;;;1.92;0.60;;;;;;;;;;4812548;29;20045;-77
2022/08/06 01:11:26;;;;;;;3.30;0.70;;;;;;;;;;4826245;29;20896;-78
2022/08/06 01:13:52;;;;;;;3.97;0.98;;;;;;;;;;4828066;29;20172;-77
2022/08/06 01:16:21;;;;;;;4.15;0.82;;;;;;;;;;4827213;29;20061;-77
2022/08/06 01:18:53;;;;;;;4.97;0.98;;;;;;;;;;4828864;29;20057;-78
2022/08/06 01:21:31;;;;;;;1.35;0.70;;;;;;;;;;4812963;29;20038;-79
2022/08/06 01:23:57;;;;;;;1.10;0.68;;;;;;;;;;4828705;29;20565;-78
2022/08/06 01:26:35;;;;;;;7.20;0.80;;;;;;;;;;4828326;29;20258;-77
2022/08/06 01:29:04;;;;;;;2.17;0.80;;;;;;;;;;4830408;29;20402;-77
2022/08/06 01:31:33;;;;;;;5.03;0.90;;;;;;;;;;4828776;29;20670;-78
2022/08/06 01:34:10;;;;;;;3.78;0.82;;;;;;;;;;4827180;29;20058;-77
2022/08/06 01:36:43;;;;;;;1.88;0.85;;;;;;;;;;4830024;29;20053;-77
2022/08/06 01:39:11;;;;;;;2.70;0.60;;;;;;;;;;4828315;29;20111;-79
2022/08/06 01:41:41;;;;;;;4.50;1.00;;;;;;;;;;4804082;29;20050;-77
2022/08/06 01:44:09;;;;;;;2.80;0.75;;;;;;;;;;4811496;29;20081;-78
2022/08/06 01:46:41;;;;;;;2.20;0.85;;;;;;;;;;4802912;29;20067;-78
2022/08/06 01:49:08;;;;;;;2.58;1.10;;;;;;;;;;4817786;29;20050;-78
2022/08/06 01:51:36;;;;;;;1.23;0.85;;;;;;;;;;4815161;29;20503;-79
2022/08/06 01:54:03;;;;;;;1.30;0.98;;;;;;;;;;4812445;29;20042;-79
2022/08/06 01:56:31;;;;;;;1.73;1.05;;;;;;;;;;4809258;29;20054;-78
2022/08/06 01:58:58;;;;;;;1.92;1.00;;;;;;;;;;4809768;29;20107;-78
2022/08/06 02:01:24;;;;;;;2.83;0.73;;;;;;;;;;4809421;29;20396;-79
2022/08/06 02:03:53;;;;;;;0.70;0.70;;;;;;;;;;4806625;29;20042;-78
2022/08/06 02:06:39;;;;;;;2.15;1.00;;;;;;;;;;4812218;29;20050;-78
2022/08/06 02:09:08;;;;;;;2.63;1.10;;;;;;;;;;4809724;29;20038;-78
2022/08/06 02:11:35;;;;;;;1.98;1.00;;;;;;;;;;4781048;29;20675;-78
2022/08/06 02:14:01;;;;;;;6.68;1.17;;;;;;;;;;4809113;29;20054;-79
2022/08/06 02:16:31;;;;;;;3.97;1.00;;;;;;;;;;4808910;29;20119;-80
2022/08/06 02:18:58;;;;;;;3.15;1.00;;;;;;;;;;4806931;29;20054;-80
2022/08/06 02:21:25;;;;;;;2.15;0.93;;;;;;;;;;4811047;29;20050;-78
2022/08/06 02:23:54;;;;;;;4.13;1.10;;;;;;;;;;4808140;29;20042;-79
2022/08/06 02:26:23;;;;;;;1.77;1.05;;;;;;;;;;4812589;29;20050;-78
2022/08/06 02:28:51;;;;;;;2.58;1.05;;;;;;;;;;4810600;29;20054;-78
2022/08/06 02:31:17;;;;;;;5.03;1.05;;;;;;;;;;4793650;29;20477;-79
2022/08/06 02:33:44;;;;;;;1.40;1.15;;;;;;;;;;4808452;29;20085;-78
2022/08/06 02:36:13;;;;;;;3.15;1.40;;;;;;;;;;4796124;29;20060;-77
2022/08/06 02:38:46;;;;;;;1.10;1.00;;;;;;;;;;4808971;29;20051;-78
2022/08/06 02:41:24;;;;;;;1.90;1.03;;;;;;;;;;4810418;29;20065;-79
2022/08/06 02:43:59;;;;;;;4.65;1.38;;;;;;;;;;4807160;29;20077;-79
2022/08/06 02:46:28;;;;;;;3.15;1.20;;;;;;;;;;4798023;29;20060;-79
2022/08/06 02:49:02;;;;;;;4.00;1.10;;;;;;;;;;4795045;29;21280;-78
2022/08/06 02:51:33;;;;;;;4.63;1.58;;;;;;;;;;4807060;29;20046;-77
2022/08/06 02:54:02;;;;;;;4.68;1.35;;;;;;;;;;4810272;29;20135;-77
2022/08/06 02:56:29;;;;;;;2.17;1.10;;;;;;;;;;4810244;29;20051;-78
2022/08/06 02:58:58;;;;;;;3.08;1.40;;;;;;;;;;4810648;29;20537;-78
2022/08/06 03:01:27;;;;;;;2.30;1.25;;;;;;;;;;4808748;29;20050;-78
2022/08/06 03:03:55;;;;;;;1.77;1.10;;;;;;;;;;4783101;29;20051;-78
2022/08/06 03:06:23;;;;;;;1.60;1.10;;;;;;;;;;4791801;29;20058;-78
2022/08/06 03:08:51;;;;;;;5.07;1.30;;;;;;;;;;4795177;29;20085;-78
2022/08/06 03:11:17;;;;;;;2.78;1.20;;;;;;;;;;4806956;29;21893;-78
2022/08/06 03:13:44;;;;;;;1.60;1.20;;;;;;;;;;4792916;29;20035;-78
2022/08/06 03:16:11;;;;;;;4.43;1.10;;;;;;;;;;4790829;29;20508;-78
2022/08/06 03:18:38;;;;;;;3.72;1.20;;;;;;;;;;4810522;29;20054;-78
2022/08/06 03:21:04;;;;;;;4.35;1.15;;;;;;;;;;4807934;29;20097;-79
2022/08/06 03:23:31;;;;;;;2.35;1.20;;;;;;;;;;4793724;29;20416;-79
2022/08/06 03:25:57;;;;;;;3.80;1.33;;;;;;;;;;4804807;29;20500;-79
2022/08/06 03:28:24;;;;;;;2.88;1.40;;;;;;;;;;4812218;29;20054;-79
2022/08/06 03:30:51;;;;;;;2.10;1.27;;;;;;;;;;4794366;29;20073;-80
2022/08/06 03:33:17;;;;;;;3.28;1.80;;;;;;;;;;4795626;29;20113;-78
2022/08/06 03:35:44;;;;;;;2.00;1.27;;;;;;;;;;4812875;29;20149;-78
2022/08/06 03:38:11;;;;;;;2.53;1.40;;;;;;;;;;4814065;29;20049;-80
2022/08/06 03:40:38;;;;;;;5.97;1.20;;;;;;;;;;4811374;29;20065;-80
2022/08/06 03:43:04;;;;;;;5.25;1.70;;;;;;;;;;4813414;29;20058;-78
2022/08/06 03:45:32;;;;;;;6.20;1.63;;;;;;;;;;4781566;29;20049;-79
2022/08/06 03:48:01;;;;;;;6.35;1.75;;;;;;;;;;4813580;29;20077;-79
2022/08/06 03:50:32;;;;;;;1.45;1.33;;;;;;;;;;4799078;29;20099;-78
2022/08/06 03:53:09;;;;;;;4.85;2.60;;;;;;;;;;4812239;29;20514;-79
2022/08/06 03:55:35;;;;;;;2.40;1.70;;;;;;;;;;4811947;29;20106;-79
2022/08/06 03:58:03;;;;;;;1.45;1.35;;;;;;;;;;4811952;29;20053;-79
2022/08/06 04:00:31;;;;;;;2.75;1.77;;;;;;;;;;4808615;29;20058;-80
2022/08/06 04:02:58;;;;;;;4.97;1.55;;;;;;;;;;4811732;29;20043;-78
2022/08/06 04:05:25;;;;;;;2.85;1.48;;;;;;;;;;4810340;29;20050;-79
2022/08/06 04:07:53;;;;;;;2.15;1.50;;;;;;;;;;4796433;29;20493;-79
2022/08/06 04:10:20;;;;;;;2.88;1.60;;;;;;;;;;4797910;29;20050;-77
2022/08/06 04:12:46;;;;;;;3.75;1.50;;;;;;;;;;4810798;29;20102;-79
2022/08/06 04:15:13;;;;;;;4.30;1.50;;;;;;;;;;4811905;29;20050;-79
2022/08/06 04:17:41;;;;;;;2.58;1.45;;;;;;;;;;4791740;29;20111;-79
2022/08/06 04:20:08;;;;;;;5.50;2.00;;;;;;;;;;4810011;29;20478;-78
2022/08/06 04:22:34;;;;;;;3.88;1.63;;;;;;;;;;4810367;29;20538;-78
2022/08/06 04:25:00;;;;;;;2.47;1.63;;;;;;;;;;4791670;29;20453;-79
2022/08/06 04:27:28;;;;;;;3.75;1.70;;;;;;;;;;4797731;29;20042;-77
2022/08/06 04:29:54;;;;;;;5.30;1.58;;;;;;;;;;4809888;29;20127;-78
2022/08/06 04:32:21;;;;;;;3.08;1.63;;;;;;;;;;4811427;29;20526;-80
2022/08/06 04:34:47;;;;;;;1.75;1.50;;;;;;;;;;4811671;29;20393;-78
2022/08/06 04:37:13;;;;;;;3.97;1.60;;;;;;;;;;4808702;29;20079;-79
2022/08/06 04:39:40;;;;;;;4.03;1.88;;;;;;;;;;4795738;29;20055;-78
2022/08/06 04:42:06;;;;;;;1.58;1.48;;;;;;;;;;4811793;29;20042;-78
2022/08/06 04:44:33;;;;;;;5.85;1.60;;;;;;;;;;4809338;29;20455;-79
2022/08/06 04:46:59;;;;;;;3.63;1.80;;;;;;;;;;4813641;29;20053;-78
2022/08/06 04:49:26;;;;;;;2.67;2.15;;;;;;;;;;4810308;29;20054;-79
2022/08/06 04:51:52;;;;;;;3.38;1.60;;;;;;;;;;4811951;29;20062;-80
2022/08/06 04:54:18;;;;;;;3.63;1.90;;;;;;;;;;4813063;29;20544;-80
2022/08/06 04:56:44;;;;;;;4.05;1.90;;;;;;;;;;4814676;29;20050;-79
2022/08/06 04:59:10;;;;;;;4.40;1.85;;;;;;;;;;4797964;29;20057;-79
2022/08/06 05:01:37;;;;;;;4.10;1.67;;;;;;;;;;4810591;29;20043;-78
2022/08/06 05:04:04;;;;;;;3.65;1.90;;;;;;;;;;4810226;29;20042;-79
2022/08/06 05:06:30;;;;;;;2.05;1.77;;;;;;;;;;4812411;29;20085;-79
2022/08/06 05:08:59;;;;;;;3.63;2.35;;;;;;;;;;4809998;29;20081;-78
2022/08/06 05:11:28;;;;;;;5.00;1.98;;;;;;;;;;4796814;29;20069;-80
2022/08/06 05:13:58;;;;;;;1.90;1.80;;;;;;;;;;4815888;29;20053;-79
2022/08/06 05:16:25;;;;;;;2.88;1.90;;;;;;;;;;4817818;29;20057;-79
2022/08/06 05:18:53;;;;;;;3.38;2.10;;;;;;;;;;4814415;29;20851;-79
2022/08/06 05:21:22;;;;;;;2.72;1.83;;;;;;;;;;4818221;29;20046;-80
2022/08/06 05:23:49;;;;;;;5.43;2.58;;;;;;;;;;4815529;29;20125;-79
2022/08/06 05:26:16;;;;;;;3.25;2.20;;;;;;;;;;4810496;29;20114;-79
2022/08/06 05:28:43;;;;;;;5.80;1.95;;;;;;;;;;4813158;29;20122;-79
2022/08/06 05:31:09;;;;;;;3.38;1.90;;;;;;;;;;4811434;29;20107;-81
2022/08/06 05:33:37;;;;;;;2.53;1.85;;;;;;;;;;4793337;29;20496;-80
2022/08/06 05:36:04;;;;;;;1.92;1.70;;;;;;;;;;4796888;29;20104;-81
2022/08/06 05:38:31;;;;;;;3.63;2.10;;;;;;;;;;4812884;29;20110;-81
2022/08/06 05:40:57;;;;;;;4.28;1.88;;;;;;;;;;4810418;29;20465;-82
2022/08/06 05:43:23;;;;;;;6.55;1.73;;;;;;;;;;4810532;29;20050;-80
2022/08/06 05:45:50;;;;;;;3.63;1.90;;;;;;;;;;4813630;29;20532;-80
2022/08/06 05:48:17;;;;;;;3.40;1.67;;;;;;;;;;4809846;29;20046;-80
2022/08/06 05:51:06;;;;;;;5.32;1.67;;;;;;;;;;4808467;29;20043;-78
2022/08/06 05:53:35;;;;;;;4.70;1.80;;;;;;;;;;4806642;29;20085;-78
2022/08/06 05:56:05;;;;;;;2.63;1.77;;;;;;;;;;4808786;29;20670;-77
2022/08/06 05:58:43;;;;;;;3.53;1.50;;;;;;;;;;4809388;29;20055;-77
2022/08/06 06:01:13;;;;;;;2.85;1.83;;;;;;;;;;4810381;29;20046;-77
2022/08/06 06:03:40;;;;;;;2.67;1.40;;;;;;;;;;4773476;29;20550;-79
2022/08/06 06:06:06;;;;;;;19.95;14.13;;;;;;;;;;4794045;29;20042;-82
2022/08/06 06:08:33;;;;;;;2.45;1.55;;;;;;;;;;4822733;29;20076;-86
2022/08/06 06:10:59;;;;;;;5.20;1.55;;;;;;;;;;4821981;29;20050;-87
2022/08/06 06:13:28;;;;;;;3.22;1.33;;;;;;;;;;4823357;29;20081;-85
2022/08/06 06:16:20;;;;;;;2.83;1.77;;;;;;;;;;4816430;29;20043;-85
2022/08/06 06:19:01;;;;;;;8.00;1.48;;;;;;;;;;4815560;29;20050;-84
2022/08/06 06:21:27;;;;;;;2.25;1.40;;;;;;;;;;4820741;29;20069;-87
2022/08/06 06:23:53;;;;;;;3.45;1.50;;;;;;;;;;4820121;29;20045;-87
2022/08/06 06:26:40;;;;;;;5.25;1.45;;;;;;;;;;4819757;29;20051;-87
2022/08/06 06:29:16;;;;;;;2.05;1.38;;;;;;;;;;4803645;29;20051;-85
2022/08/06 06:32:01;;;;;;;1.60;1.40;;;;;;;;;;4822854;29;20068;-85
2022/08/06 06:34:46;;;;;;;1.98;1.45;;;;;;;;;;4817391;29;20050;-86
2022/08/06 06:37:18;;;;;;;2.20;1.30;;;;;;;;;;4821644;29;20054;-87
2022/08/06 06:40:09;;;;;;;3.40;1.50;;;;;;;;;;4821001;29;20065;-86
2022/08/06 06:42:38;;;;;;;2.53;0.95;;;;;;;;;;4819995;29;20034;-86
2022/08/06 06:45:22;;;;;;;3.70;1.10;;;;;;;;;;4821880;29;20067;-85
2022/08/06 06:47:52;;;;;;;4.83;1.57;;;;;;;;;;4823960;29;20046;-85
2022/08/06 06:50:18;;;;;;;1.13;0.77;;;;;;;;;;4824762;29;20050;-87
2022/08/06 06:52:46;;;;;;;3.58;1.20;;;;;;;;;;4823115;29;20508;-86
2022/08/06 06:55:15;;;;;;;2.63;1.00;;;;;;;;;;4829950;29;21467;-85
2022/08/06 06:57:46;;;;;;;6.50;0.98;;;;;;;;;;4817011;29;20515;-82
2022/08/06 07:00:13;;;;;;;4.20;1.00;;;;;;;;;;4819579;29;20608;-85
2022/08/06 07:02:40;;;;;;;3.22;0.70;;;;;;;;;;4802571;29;20050;-84
2022/08/06 07:05:08;;;;;;;2.58;1.00;;;;;;;;;;4802572;29;20516;-86
2022/08/06 07:07:35;;;;;;;4.32;1.08;;;;;;;;;;4816423;29;20043;-86
2022/08/06 07:10:02;;;;;;;2.33;0.88;;;;;;;;;;4805792;29;20085;-85
2022/08/06 07:12:30;;;;;;;3.75;0.65;;;;;;;;;;4818960;29;20047;-84
2022/08/06 07:15:07;;;;;;;1.98;0.60;;;;;;;;;;4805807;29;20525;-81
2022/08/06 07:17:34;;;;;;;2.67;0.68;;;;;;;;;;4807279;29;20075;-82
2022/08/06 07:20:02;;;;;;;2.47;0.70;;;;;;;;;;4818858;29;20061;-87
2022/08/06 07:22:28;;;;;;;2.53;0.60;;;;;;;;;;4799667;29;20050;-87
2022/08/06 07:24:56;;;;;;;2.20;0.77;;;;;;;;;;4821162;29;20099;-86
2022/08/06 07:27:37;;;;;;;2.95;0.80;;;;;;;;;;4819264;29;20054;-86
2022/08/06 07:30:05;;;;;;;3.10;0.75;;;;;;;;;;4803146;29;20042;-87
2022/08/06 07:32:35;;;;;;;1.85;0.60;;;;;;;;;;4820981;29;20070;-87
2022/08/06 07:35:07;;;;;;;5.15;0.63;;;;;;;;;;4802575;29;20187;-85
2022/08/06 07:37:34;;;;;;;2.28;0.50;;;;;;;;;;4806017;29;20050;-87
2022/08/06 07:40:00;;;;;;;1.40;0.68;;;;;;;;;;4809197;29;20153;-84
2022/08/06 07:42:30;;;;;;;3.33;0.65;;;;;;;;;;4829289;29;20038;-89
2022/08/06 07:45:02;;;;;;;5.93;1.00;;;;;;;;;;4811486;29;20051;-85
2022/08/06 07:47:30;;;;;;;3.15;0.55;;;;;;;;;;4825402;29;20046;-88
2022/08/06 07:49:58;;;;;;;4.90;0.70;;;;;;;;;;4822941;29;20051;-86
2022/08/06 07:52:31;;;;;;;9.00;1.80;;;;;;;;;;4828463;29;20103;-88
2022/08/06 07:55:00;;;;;;;2.53;0.73;;;;;;;;;;4839070;29;20060;-86
2022/08/06 07:57:26;;;;;;;4.53;0.70;;;;;;;;;;4836894;29;20138;-83
2022/08/06 07:59:53;;;;;;;2.20;1.27;;;;;;;;;;4824080;29;20050;-86
2022/08/06 08:02:20;;;;;;;6.43;1.15;;;;;;;;;;4812373;29;20043;-82
2022/08/06 08:07:50;;;;;;;7.15;1.13;;;;;;;;;;4839485;29;20054;-87
2022/08/06 08:10:32;;;;;;;3.05;0.90;;;;;;;;;;4795893;29;20042;-87
2022/08/06 08:13:01;;;;;;;4.38;0.90;;;;;;;;;;4834325;29;20062;-88
2022/08/06 08:15:31;;;;;;;4.05;0.70;;;;;;;;;;4816869;29;20207;-87
2022/08/06 08:18:00;;;;;;;4.47;1.10;;;;;;;;;;4806373;29;20057;-88
2022/08/06 08:20:33;;;;;;;4.10;1.15;;;;;;;;;;4826207;29;20062;-90
2022/08/06 08:23:01;;;;;;;4.40;0.95;;;;;;;;;;4830856;29;20050;-88
2022/08/06 08:25:27;;;;;;;6.43;1.48;;;;;;;;;;4834324;29;20049;-90
2022/08/06 08:27:58;;;;;;;5.97;1.17;;;;;;;;;;4815330;29;20408;-86
2022/08/06 08:30:24;;;;;;;6.97;1.20;;;;;;;;;;4819077;29;20495;-89
2022/08/06 08:32:50;;;;;;;3.70;1.00;;;;;;;;;;4832514;29;20181;-89
2022/08/06 08:35:16;;;;;;;2.25;0.98;;;;;;;;;;4820790;29;20051;-85
2022/08/06 08:37:42;;;;;;;2.88;0.90;;;;;;;;;;4828101;29;20053;-87
2022/08/06 08:40:18;;;;;;;3.17;1.10;;;;;;;;;;4828294;29;20097;-88
2022/08/06 08:42:45;;;;;;;4.38;1.05;;;;;;;;;;4831087;29;20114;-88
2022/08/06 08:45:13;;;;;;;4.47;1.10;;;;;;;;;;4811648;29;20085;-88
2022/08/06 08:47:44;;;;;;;4.13;1.23;;;;;;;;;;4829025;29;20127;-86
2022/08/06 08:50:11;;;;;;;4.20;1.13;;;;;;;;;;4823368;29;20046;-86
2022/08/06 08:52:39;;;;;;;2.97;1.15;;;;;;;;;;4828660;29;20054;-84
2022/08/06 08:55:06;;;;;;;3.00;1.17;;;;;;;;;;4826486;29;20091;-87
2022/08/06 08:57:33;;;;;;;2.85;1.30;;;;;;;;;;4828523;29;20510;-84
2022/08/06 09:00:01;;;;;;;4.82;1.10;;;;;;;;;;4828510;29;20527;-88
2022/08/06 09:02:30;;;;;;;4.80;1.30;;;;;;;;;;4828385;29;20526;-87
2022/08/06 09:05:05;;;;;;;5.05;1.30;;;;;;;;;;4818131;29;20047;-88
2022/08/06 09:07:32;;;;;;;4.63;1.10;;;;;;;;;;4839562;29;20038;-90
2022/08/06 09:09:59;;;;;;;3.30;1.20;;;;;;;;;;4796251;29;20086;-86
2022/08/06 09:12:25;;;;;;;6.07;1.75;;;;;;;;;;4835987;29;20526;-87
2022/08/06 09:14:52;;;;;;;5.75;1.63;;;;;;;;;;4824239;29;20034;-89
2022/08/06 09:17:18;;;;;;;4.88;1.42;;;;;;;;;;4803048;29;20042;-89
2022/08/06 09:19:44;;;;;;;3.10;1.60;;;;;;;;;;4830878;29;20083;-87
2022/08/06 09:22:11;;;;;;;4.85;1.70;;;;;;;;;;4830040;29;20095;-88
2022/08/06 09:24:37;;;;;;;4.63;1.83;;;;;;;;;;4824924;29;20437;-89
2022/08/06 09:27:13;;;;;;;4.45;1.83;;;;;;;;;;4826597;29;20477;-84
2022/08/06 09:29:53;;;;;;;10.32;2.47;;;;;;;;;;4817834;29;20089;-89
2022/08/06 09:32:38;;;;;;;5.75;1.85;;;;;;;;;;4819977;29;20114;-90
2022/08/06 09:35:16;;;;;;;4.32;2.00;;;;;;;;;;4829977;29;20049;-87
2022/08/06 09:37:49;;;;;;;6.45;2.50;;;;;;;;;;4836974;29;20155;-90
2022/08/06 09:40:16;;;;;;;4.15;2.28;;;;;;;;;;4820134;29;20062;-90
2022/08/06 09:42:43;;;;;;;4.63;2.85;;;;;;;;;;4820312;29;20046;-88
2022/08/06 09:45:10;;;;;;;4.40;2.50;;;;;;;;;;4838354;29;20042;-91
2022/08/06 09:47:46;;;;;;;3.08;2.08;;;;;;;;;;4826961;29;20045;-87
2022/08/06 09:50:12;;;;;;;5.90;2.60;;;;;;;;;;4826211;29;20045;-85
2022/08/06 09:52:38;;;;;;;4.70;2.10;;;;;;;;;;4838598;29;20044;-91
2022/08/06 09:55:06;;;;;;;6.32;2.55;;;;;;;;;;4810243;29;20042;-88
2022/08/06 09:57:43;;;;;;;4.35;2.20;;;;;;;;;;4835897;29;20515;-88
2022/08/06 10:00:43;;;;;;;8.27;2.88;;;;;;;;;;4844003;29;20103;-89
2022/08/06 10:03:10;;;;;;;6.18;2.60;;;;;;;;;;4825377;29;20503;-87
2022/08/06 10:05:45;;;;;;;5.82;2.83;;;;;;;;;;4839869;29;20050;-87
2022/08/06 10:08:13;;;;;;;5.22;2.70;;;;;;;;;;4840362;29;20057;-87
2022/08/06 10:10:45;;;;;;;3.72;2.40;;;;;;;;;;4820856;29;20102;-88
2022/08/06 10:13:39;;;;;;;5.50;2.70;;;;;;;;;;4820590;23;20137;-85
2022/08/06 10:16:31;;;;;;;6.63;2.40;;;;;;;;;;4805294;29;20051;-87
2022/08/06 10:18:57;;;;;;;5.93;3.10;;;;;;;;;;4804366;29;20059;-85
2022/08/06 10:21:30;;;;;;;4.05;2.80;;;;;;;;;;4802738;29;20050;-86
2022/08/06 10:24:00;;;;;;;4.30;2.83;;;;;;;;;;4806187;29;20047;-88
2022/08/06 10:26:35;;;;;;;3.58;2.78;;;;;;;;;;4807473;29;20050;-88
2022/08/06 10:29:06;;;;;;;4.18;2.90;;;;;;;;;;4791917;29;20047;-88
2022/08/06 10:31:45;;;;;;;3.60;2.88;;;;;;;;;;4796036;29;20655;-89
2022/08/06 10:34:14;;;;;;;3.60;2.10;;;;;;;;;;4808832;29;20099;-89
2022/08/06 10:36:54;;;;;;;5.05;2.70;;;;;;;;;;4795502;29;20058;-88
2022/08/06 10:39:26;;;;;;;5.38;2.75;;;;;;;;;;4809026;29;20121;-88
2022/08/06 10:41:55;;;;;;;5.03;3.25;;;;;;;;;;4803808;29;20051;-90
2022/08/06 10:44:27;;;;;;;4.72;3.20;;;;;;;;;;4799750;29;20074;-88
2022/08/06 10:46:55;;;;;;;3.42;2.38;;;;;;;;;;4805557;29;20134;-86
2022/08/06 10:49:23;;;;;;;5.05;3.33;;;;;;;;;;4805002;29;20508;-87
2022/08/06 10:51:49;;;;;;;6.53;3.50;;;;;;;;;;4808433;29;20081;-87
2022/08/06 10:54:18;;;;;;;6.68;3.30;;;;;;;;;;4802627;29;20668;-86
2022/08/06 10:56:50;;;;;;;13.70;3.67;;;;;;;;;;4812976;29;20073;-89
2022/08/06 10:59:17;;;;;;;8.27;3.07;;;;;;;;;;4811830;29;20443;-87
2022/08/06 11:01:47;;;;;;;7.88;3.47;;;;;;;;;;4787972;29;20050;-84
2022/08/06 11:04:22;;;;;;;4.80;3.47;;;;;;;;;;4807827;29;20076;-86
2022/08/06 11:07:07;;;;;;;6.13;3.17;;;;;;;;;;4794539;29;20123;-86
2022/08/06 11:09:59;;;;;;;4.30;3.20;;;;;;;;;;4807504;29;20051;-84
2022/08/06 11:12:31;;;;;;;9.60;3.80;;;;;;;;;;4808557;29;20137;-85
2022/08/06 11:15:07;;;;;;;6.22;3.40;;;;;;;;;;4810117;29;20929;-87
2022/08/06 11:17:55;;;;;;;6.75;3.65;;;;;;;;;;4820043;29;20057;-87
2022/08/06 11:20:45;;;;;;;8.63;3.60;;;;;;;;;;4818331;29;20083;-87
2022/08/06 11:23:12;;;;;;;4.07;3.10;;;;;;;;;;4819007;29;20176;-88
2022/08/06 11:25:38;;;;;;;4.28;3.60;;;;;;;;;;4825774;29;20041;-84
2022/08/06 11:28:14;;;;;;;4.93;3.35;;;;;;;;;;4811613;29;20142;-84
2022/08/06 11:30:41;;;;;;;5.72;3.67;;;;;;;;;;4820535;29;20051;-87
2022/08/06 11:33:11;;;;;;;4.18;3.47;;;;;;;;;;4814185;29;20051;-86
2022/08/06 11:35:43;;;;;;;6.72;3.40;;;;;;;;;;4825099;29;20047;-84
2022/08/06 11:38:28;;;;;;;4.90;3.42;;;;;;;;;;4826804;29;20560;-84
2022/08/06 11:41:10;;;;;;;5.18;4.15;;;;;;;;;;4836152;29;20076;-87
2022/08/06 11:44:07;;;;;;;4.43;3.85;;;;;;;;;;4833076;29;20437;-89
2022/08/06 11:46:40;;;;;;;9.98;4.25;;;;;;;;;;4828492;29;20061;-85
2022/08/06 11:49:13;;;;;;;4.05;3.50;;;;;;;;;;4821535;29;20111;-89
2022/08/06 11:51:42;;;;;;;6.60;4.70;;;;;;;;;;4841404;29;20043;-88
2022/08/06 11:54:26;;;;;;;5.13;3.55;;;;;;;;;;4818733;29;20058;-86
2022/08/06 11:57:13;;;;;;;5.60;3.40;;;;;;;;;;4832435;29;20049;-83
2022/08/06 12:00:09;;;;;;;7.03;4.10;;;;;;;;;;4814235;29;20062;-84
2022/08/06 12:02:46;;;;;;;4.10;3.10;;;;;;;;;;4814893;29;20489;-86
2022/08/06 12:05:15;;;;;;;4.53;3.92;;;;;;;;;;4810827;29;20142;-84
2022/08/06 12:07:44;;;;;;;4.88;3.70;;;;;;;;;;4839509;29;20049;-89
2022/08/06 12:10:11;;;;;;;3.83;2.92;;;;;;;;;;4830620;29;20042;-87
2022/08/06 12:12:48;;;;;;;5.05;3.20;;;;;;;;;;4809939;29;20066;-90
2022/08/06 12:15:30;;;;;;;4.15;3.22;;;;;;;;;;4824026;29;20106;-87
2022/08/06 12:18:09;;;;;;;3.70;3.30;;;;;;;;;;4816619;29;20050;-84
2022/08/06 12:20:39;;;;;;;5.20;3.40;;;;;;;;;;4817749;29;20054;-85
2022/08/06 12:23:38;;;;;;;4.85;3.70;;;;;;;;;;4834208;29;20042;-89
2022/08/06 12:26:08;;;;;;;6.82;3.40;;;;;;;;;;4816040;29;20039;-86
2022/08/06 12:28:34;;;;;;;7.70;4.72;;;;;;;;;;4814821;29;20061;-82
2022/08/06 12:31:00;;;;;;;6.07;3.53;;;;;;;;;;4820343;29;20112;-91
2022/08/06 12:33:40;;;;;;;5.07;4.30;;;;;;;;;;4805027;29;20050;-88
2022/08/06 12:36:25;;;;;;;5.93;3.72;;;;;;;;;;4818738;29;20458;-91
2022/08/06 12:39:17;;;;;;;6.05;3.85;;;;;;;;;;4817298;29;20078;-95
2022/08/06 12:41:43;;;;;;;5.65;3.70;;;;;;;;;;4818604;29;20047;-89
2022/08/06 12:44:10;;;;;;;5.90;3.70;;;;;;;;;;4801085;29;20111;-92
2022/08/06 12:46:36;;;;;;;3.92;3.63;;;;;;;;;;4798227;29;20496;-90
2022/08/06 12:49:02;;;;;;;4.10;3.80;;;;;;;;;;4803632;29;20122;-91
2022/08/06 12:51:31;;;;;;;4.80;3.35;;;;;;;;;;4821638;29;20106;-93
2022/08/06 12:54:01;;;;;;;4.38;3.80;;;;;;;;;;4793085;29;20065;-89
2022/08/06 12:56:29;;;;;;;7.75;3.80;;;;;;;;;;4790262;29;20057;-87
2022/08/06 12:58:56;;;;;;;6.47;4.03;;;;;;;;;;4809279;29;20106;-87
2022/08/06 13:01:23;;;;;;;7.18;3.42;;;;;;;;;;4807817;29;20054;-87
2022/08/06 13:04:02;;;;;;;5.00;3.40;;;;;;;;;;4810087;29;20197;-85
2022/08/06 13:06:29;;;;;;;11.98;3.75;;;;;;;;;;4813643;29;20114;-83
2022/08/06 13:09:01;;;;;;;4.82;3.70;;;;;;;;;;4806954;29;20508;-83
2022/08/06 13:11:31;;;;;;;7.68;3.80;;;;;;;;;;4805419;29;20085;-82
2022/08/06 13:13:59;;;;;;;7.93;3.75;;;;;;;;;;4803424;29;20059;-83
2022/08/06 13:16:25;;;;;;;4.13;3.72;;;;;;;;;;4801673;29;20050;-83
2022/08/06 13:19:11;;;;;;;4.88;3.58;;;;;;;;;;4803225;29;20548;-83
2022/08/06 13:21:37;;;;;;;3.80;3.30;;;;;;;;;;4791016;29;20043;-86
2022/08/06 13:24:04;;;;;;;4.38;3.97;;;;;;;;;;4801588;29;20047;-85
2022/08/06 13:26:31;;;;;;;6.25;3.60;;;;;;;;;;4805665;29;20054;-82
2022/08/06 13:29:10;;;;;;;5.68;3.65;;;;;;;;;;4785460;29;20039;-86
2022/08/06 13:31:37;;;;;;;4.28;3.88;;;;;;;;;;4789840;29;20043;-85
2022/08/06 13:34:05;;;;;;;4.20;3.80;;;;;;;;;;4792374;29;20043;-84
2022/08/06 13:36:32;;;;;;;5.47;3.75;;;;;;;;;;4796380;29;20059;-84
2022/08/06 13:39:03;;;;;;;4.35;4.05;;;;;;;;;;4792531;29;20047;-86
2022/08/06 13:41:36;;;;;;;4.50;3.10;;;;;;;;;;4789817;29;20873;-83
2022/08/06 13:44:02;;;;;;;5.03;3.70;;;;;;;;;;4803326;29;20103;-84
2022/08/06 13:46:28;;;;;;;4.20;3.90;;;;;;;;;;4782061;29;20300;-85
2022/08/06 13:48:55;;;;;;;11.32;3.95;;;;;;;;;;4816465;29;20038;-83
2022/08/06 13:51:37;;;;;;;5.55;3.95;;;;;;;;;;4814607;29;20044;-83
2022/08/06 13:54:04;;;;;;;4.60;3.33;;;;;;;;;;4793469;29;20114;-87
2022/08/06 13:56:32;;;;;;;5.28;4.00;;;;;;;;;;4807798;29;20099;-84
2022/08/06 13:59:04;;;;;;;3.80;3.40;;;;;;;;;;4793430;29;20062;-84
2022/08/06 14:01:36;;;;;;;7.13;3.67;;;;;;;;;;4809286;29;20057;-83
2022/08/06 14:04:05;;;;;;;5.38;3.63;;;;;;;;;;4815070;29;20050;-83
2022/08/06 14:06:45;;;;;;;5.85;3.25;;;;;;;;;;4803358;29;20137;-86
2022/08/06 14:09:11;;;;;;;3.83;3.42;;;;;;;;;;4805876;29;20062;-85
2022/08/06 14:11:37;;;;;;;4.22;3.53;;;;;;;;;;4806167;29;20050;-84
2022/08/06 14:14:09;;;;;;;4.88;3.15;;;;;;;;;;4802560;29;20059;-82
2022/08/06 14:16:35;;;;;;;3.47;3.17;;;;;;;;;;4809310;29;20173;-85
2022/08/06 14:19:14;;;;;;;4.47;3.53;;;;;;;;;;4793182;29;20491;-84
2022/08/06 14:21:42;;;;;;;7.75;3.58;;;;;;;;;;4824887;29;20062;-86
2022/08/06 14:24:08;;;;;;;5.55;3.67;;;;;;;;;;4799648;29;20503;-84
2022/08/06 14:26:36;;;;;;;5.53;3.55;;;;;;;;;;4804086;29;20133;-84
2022/08/06 14:29:03;;;;;;;3.97;3.60;;;;;;;;;;4806674;29;20468;-85
2022/08/06 14:31:32;;;;;;;4.18;3.30;;;;;;;;;;4804354;29;20055;-86
2022/08/06 14:34:17;;;;;;;4.15;3.63;;;;;;;;;;4776309;29;20069;-83
2022/08/06 14:36:43;;;;;;;3.60;3.15;;;;;;;;;;4770712;29;20459;-85
2022/08/06 14:39:16;;;;;;;4.68;3.45;;;;;;;;;;4790285;29;20081;-84
2022/08/06 14:47:12;;;;;;;4.25;3.40;;;;;;;;;;4798623;29;20087;-85
2022/08/06 14:49:41;;;;;;;3.42;3.08;;;;;;;;;;4803763;29;20047;-84
2022/08/06 14:52:08;;;;;;;3.75;3.17;;;;;;;;;;4818086;29;20039;-84
2022/08/06 14:54:35;;;;;;;3.45;3.15;;;;;;;;;;4806462;29;20081;-84
2022/08/06 14:57:05;;;;;;;3.78;3.20;;;;;;;;;;4812820;29;20046;-87
2022/08/06 14:59:38;;;;;;;4.22;3.30;;;;;;;;;;4812920;29;20055;-84
2022/08/06 15:02:04;;;;;;;4.40;3.33;;;;;;;;;;4810440;29;20588;-84
2022/08/06 15:04:30;;;;;;;7.47;3.35;;;;;;;;;;4773032;29;20078;-84
2022/08/06 15:06:56;;;;;;;6.18;3.05;;;;;;;;;;4804211;29;20047;-82
2022/08/06 15:09:23;;;;;;;4.45;3.20;;;;;;;;;;4801293;29;20073;-83